Time;durP1;ratioP1;P1;durP2;ratioP2;P2;SDS_P1;SDS_P2;PMS_P1;PMS_P2;Temp;Humidity;BMP_temperature;BMP_pressure;BME280_temperature;BME280_humidity;BME280_pressure;Samples;Min_cycle;Max_cycle;Signal;HPM_P1;HPM_P2
2024/02/04 05:31:59;;;;;;;0.10;0.10;;;10.80;81.40;;;;;;6152612;23;20373;-77
2024/02/04 05:34:24;;;;;;;0.10;0.10;;;10.80;81.40;;;;;;6129530;23;20049;-77
2024/02/04 05:36:50;;;;;;;0.10;0.10;;;10.80;81.10;;;;;;6160091;23;20001;-76
2024/02/04 05:39:16;;;;;;;0.10;0.10;;;10.80;81.10;;;;;;6133899;23;20006;-77
2024/02/04 05:41:43;;;;;;;0.05;0.05;;;10.80;81.20;;;;;;6133588;23;20008;-77
2024/02/04 05:44:08;;;;;;;0.10;0.10;;;10.90;81.30;;;;;;6134060;23;20402;-79
2024/02/04 05:46:38;;;;;;;0.10;0.10;;;10.80;81.10;;;;;;6132137;23;20008;-77
2024/02/04 05:49:04;;;;;;;0.10;0.10;;;10.80;81.00;;;;;;6133427;23;20041;-77
2024/02/04 05:51:33;;;;;;;0.20;0.20;;;10.80;80.90;;;;;;6159802;23;20033;-79
2024/02/04 05:53:59;;;;;;;0.10;0.10;;;10.80;81.10;;;;;;6133537;23;20427;-77
2024/02/04 05:56:24;;;;;;;0.10;0.10;;;10.80;81.10;;;;;;6159474;23;20028;-75
2024/02/04 05:58:51;;;;;;;0.10;0.10;;;10.90;81.10;;;;;;6159654;23;20009;-77
2024/02/04 06:01:17;;;;;;;0.10;0.10;;;10.90;81.10;;;;;;6158814;23;20348;-76
2024/02/04 06:03:46;;;;;;;0.10;0.10;;;10.90;81.00;;;;;;6159294;23;20008;-76
2024/02/04 06:06:15;;;;;;;0.10;0.10;;;10.90;81.10;;;;;;6159766;23;20442;-76
2024/02/04 06:08:42;;;;;;;0.10;0.10;;;10.80;81.20;;;;;;6159257;23;20004;-77
2024/02/04 06:11:14;;;;;;;0.10;0.10;;;10.80;81.10;;;;;;6159850;23;20005;-77
2024/02/04 06:13:41;;;;;;;0.10;0.10;;;10.80;81.20;;;;;;6159198;23;20002;-76
2024/02/04 06:16:07;;;;;;;0.10;0.10;;;10.90;81.10;;;;;;6159866;23;20009;-77
2024/02/04 06:18:37;;;;;;;0.10;0.10;;;10.90;81.00;;;;;;6133644;23;20124;-77
2024/02/04 06:21:03;;;;;;;0.10;0.10;;;10.90;81.00;;;;;;6133172;23;20013;-76
2024/02/04 06:23:29;;;;;;;0.10;0.10;;;10.90;81.00;;;;;;6159364;23;20018;-76
2024/02/04 06:25:54;;;;;;;0.10;0.10;;;10.90;81.30;;;;;;6159417;23;20009;-77
2024/02/04 06:28:20;;;;;;;0.10;0.10;;;10.80;81.10;;;;;;6133419;23;20008;-76
2024/02/04 06:30:46;;;;;;;0.10;0.10;;;10.80;81.10;;;;;;6136774;23;20045;-76
2024/02/04 06:33:11;;;;;;;0.10;0.10;;;10.90;81.30;;;;;;6159741;23;20001;-76
2024/02/04 06:35:37;;;;;;;0.10;0.10;;;10.90;81.20;;;;;;6158871;23;20084;-77
2024/02/04 06:38:03;;;;;;;0.10;0.10;;;10.80;81.30;;;;;;6159657;23;20052;-76
2024/02/04 06:40:28;;;;;;;0.10;0.10;;;10.80;81.50;;;;;;6159484;23;20052;-76
2024/02/04 06:42:54;;;;;;;0.10;0.10;;;10.80;81.40;;;;;;6156828;23;20419;-76
2024/02/04 06:45:19;;;;;;;0.10;0.10;;;10.80;81.10;;;;;;6158054;23;21012;-77
2024/02/04 06:47:45;;;;;;;0.10;0.10;;;10.80;81.30;;;;;;6159260;23;20005;-77
2024/02/04 06:50:13;;;;;;;0.10;0.10;;;10.80;81.30;;;;;;6158963;23;19997;-77
2024/02/04 06:52:43;;;;;;;0.10;0.10;;;10.80;81.10;;;;;;6157857;23;20002;-77
2024/02/04 06:55:09;;;;;;;0.10;0.10;;;10.80;81.10;;;;;;6157121;23;20390;-77
2024/02/04 06:57:35;;;;;;;0.10;0.10;;;10.80;81.10;;;;;;6158910;23;20675;-77
2024/02/04 07:00:01;;;;;;;0.10;0.10;;;10.80;81.10;;;;;;6157562;23;20013;-77
2024/02/04 07:02:27;;;;;;;0.10;0.10;;;10.80;81.30;;;;;;6156911;23;20009;-77
2024/02/04 07:04:53;;;;;;;0.10;0.10;;;10.80;81.30;;;;;;6158342;23;20084;-77
2024/02/04 07:07:19;;;;;;;0.10;0.10;;;10.80;81.50;;;;;;6159124;23;19997;-76
2024/02/04 07:09:44;;;;;;;0.10;0.10;;;10.80;81.50;;;;;;6157591;23;20012;-77
2024/02/04 07:12:10;;;;;;;0.10;0.10;;;10.80;81.60;;;;;;6158643;23;20004;-77
2024/02/04 07:14:35;;;;;;;0.10;0.10;;;10.80;81.60;;;;;;6158942;23;20005;-77
2024/02/04 07:17:01;;;;;;;0.10;0.10;;;10.80;81.50;;;;;;6158714;23;20526;-77
2024/02/04 07:19:27;;;;;;;0.10;0.10;;;10.80;81.80;;;;;;6157016;23;20021;-77
2024/02/04 07:21:52;;;;;;;0.10;0.10;;;10.70;81.90;;;;;;6158504;23;20009;-76
2024/02/04 07:24:18;;;;;;;0.10;0.10;;;10.80;82.10;;;;;;6157052;23;20005;-77
2024/02/04 07:26:45;;;;;;;0.10;0.10;;;10.70;82.00;;;;;;6157875;23;20072;-76
2024/02/04 07:29:15;;;;;;;0.10;0.10;;;10.70;82.00;;;;;;6156603;23;20001;-76
2024/02/04 07:31:42;;;;;;;0.10;0.10;;;10.70;82.00;;;;;;6156996;23;20358;-78
2024/02/04 07:34:08;;;;;;;0.17;0.13;;;10.80;81.80;;;;;;6157897;23;20013;-82
2024/02/04 07:36:33;;;;;;;0.10;0.10;;;10.80;81.70;;;;;;6158695;23;20386;-78
2024/02/04 07:38:59;;;;;;;0.10;0.10;;;10.80;81.60;;;;;;6158726;23;20002;-78
2024/02/04 07:41:25;;;;;;;0.10;0.10;;;10.80;81.70;;;;;;6132744;23;20010;-79
2024/02/04 07:43:51;;;;;;;0.10;0.10;;;10.80;81.90;;;;;;6132504;23;20422;-78
2024/02/04 07:46:17;;;;;;;0.10;0.10;;;10.80;81.50;;;;;;6158915;23;20029;-78
2024/02/04 07:48:42;;;;;;;0.15;0.15;;;10.80;81.70;;;;;;6158442;23;20493;-78
2024/02/04 07:51:08;;;;;;;0.10;0.10;;;10.80;81.70;;;;;;6158731;23;19997;-78
2024/02/04 07:53:36;;;;;;;0.10;0.10;;;10.80;81.40;;;;;;6158658;23;20072;-78
2024/02/04 07:56:03;;;;;;;0.10;0.10;;;10.80;81.40;;;;;;6159018;23;20002;-78
2024/02/04 07:58:29;;;;;;;0.10;0.10;;;10.80;81.30;;;;;;6132453;23;20036;-79
2024/02/04 08:00:55;;;;;;;0.17;0.10;;;10.80;81.30;;;;;;6158591;23;20005;-78
2024/02/04 08:03:20;;;;;;;0.10;0.10;;;10.90;81.50;;;;;;6132473;23;20068;-80
2024/02/04 08:05:46;;;;;;;0.10;0.10;;;10.90;81.70;;;;;;6133121;23;20043;-80
2024/02/04 08:08:12;;;;;;;0.10;0.10;;;10.80;81.60;;;;;;6158585;23;20371;-77
2024/02/04 08:10:37;;;;;;;0.10;0.10;;;10.90;81.30;;;;;;6158664;23;20009;-79
2024/02/04 08:13:03;;;;;;;0.10;0.10;;;10.90;81.10;;;;;;6153772;23;20004;-77
2024/02/04 08:15:29;;;;;;;0.10;0.10;;;10.90;81.00;;;;;;6129669;23;20530;-76
2024/02/04 08:17:54;;;;;;;0.10;0.10;;;11.00;80.80;;;;;;6156225;23;20025;-77
2024/02/04 08:20:21;;;;;;;0.13;0.13;;;11.00;80.80;;;;;;6130502;23;20010;-87
2024/02/04 08:22:47;;;;;;;0.10;0.10;;;11.00;80.70;;;;;;6131083;23;20005;-77
2024/02/04 08:25:13;;;;;;;0.10;0.10;;;11.00;80.90;;;;;;6131466;23;20006;-77
2024/02/04 08:27:39;;;;;;;0.10;0.10;;;11.00;80.80;;;;;;6132489;23;20109;-78
2024/02/04 08:30:05;;;;;;;0.10;0.10;;;11.00;80.70;;;;;;6158449;23;20057;-80
2024/02/04 08:32:31;;;;;;;0.10;0.10;;;10.90;80.60;;;;;;6157147;23;20037;-77
2024/02/04 08:34:56;;;;;;;0.10;0.10;;;11.00;80.30;;;;;;6158588;23;20402;-79
2024/02/04 08:37:22;;;;;;;0.10;0.10;;;11.00;80.30;;;;;;6158002;23;20005;-77
2024/02/04 08:39:48;;;;;;;0.10;0.10;;;11.10;80.10;;;;;;6132079;23;20068;-78
2024/02/04 08:42:15;;;;;;;0.17;0.17;;;11.10;80.20;;;;;;6157983;23;21013;-81
2024/02/04 08:44:41;;;;;;;0.10;0.10;;;11.10;80.20;;;;;;6132073;23;20009;-80
2024/02/04 08:47:10;;;;;;;0.10;0.10;;;11.10;80.10;;;;;;6158262;23;20005;-77
2024/02/04 08:49:36;;;;;;;0.10;0.10;;;11.10;80.00;;;;;;6131606;23;20010;-77
2024/02/04 08:52:02;;;;;;;0.10;0.10;;;11.10;80.10;;;;;;6154286;23;20001;-77
2024/02/04 08:54:28;;;;;;;0.10;0.10;;;11.20;80.10;;;;;;6155919;23;20016;-77
2024/02/04 08:56:54;;;;;;;0.10;0.10;;;11.10;79.70;;;;;;6128657;23;20032;-77
2024/02/04 08:59:20;;;;;;;0.10;0.10;;;11.20;79.90;;;;;;6130945;23;20029;-77
2024/02/04 09:01:46;;;;;;;0.10;0.10;;;11.20;80.10;;;;;;6157654;23;20032;-76
2024/02/04 09:04:11;;;;;;;0.10;0.10;;;11.20;79.90;;;;;;6155888;23;20041;-77
2024/02/04 09:06:37;;;;;;;0.10;0.10;;;11.20;80.20;;;;;;6131540;23;20446;-77
2024/02/04 09:09:03;;;;;;;0.10;0.10;;;11.20;80.20;;;;;;6156152;23;20009;-78
2024/02/04 09:11:28;;;;;;;0.10;0.10;;;11.20;80.20;;;;;;6127865;23;20435;-78
2024/02/04 09:13:54;;;;;;;0.10;0.10;;;11.20;80.40;;;;;;6155034;23;20017;-77
2024/02/04 09:16:20;;;;;;;0.10;0.10;;;11.20;80.20;;;;;;6155520;23;20005;-78
2024/02/04 09:18:47;;;;;;;0.10;0.10;;;11.40;80.20;;;;;;6129249;23;20505;-78
2024/02/04 09:21:13;;;;;;;0.10;0.10;;;11.30;80.20;;;;;;6152528;23;20028;-77
2024/02/04 09:23:39;;;;;;;0.10;0.10;;;11.40;80.20;;;;;;6156313;23;20006;-78
2024/02/04 09:26:05;;;;;;;0.10;0.10;;;11.40;79.90;;;;;;6156127;23;20465;-77
2024/02/04 09:28:30;;;;;;;0.10;0.10;;;11.40;80.30;;;;;;6156495;23;20040;-78
2024/02/04 09:30:56;;;;;;;0.10;0.10;;;11.50;80.10;;;;;;6131646;23;20044;-77
2024/02/04 09:33:21;;;;;;;0.10;0.10;;;11.50;80.20;;;;;;6152717;23;20013;-78
2024/02/04 09:35:48;;;;;;;0.10;0.10;;;11.50;80.00;;;;;;6152618;23;20088;-77
2024/02/04 09:38:15;;;;;;;0.10;0.10;;;11.50;80.00;;;;;;6150066;23;20008;-78
2024/02/04 09:40:41;;;;;;;0.10;0.10;;;11.60;79.80;;;;;;6154443;23;20006;-76
2024/02/04 09:43:07;;;;;;;0.10;0.10;;;11.60;79.70;;;;;;6152964;23;20041;-77
2024/02/04 09:45:33;;;;;;;0.10;0.10;;;11.50;79.80;;;;;;6156426;23;20058;-77
2024/02/04 09:48:00;;;;;;;0.10;0.10;;;11.60;79.60;;;;;;6152791;23;19997;-78
2024/02/04 09:50:26;;;;;;;0.10;0.10;;;11.60;79.80;;;;;;6156268;23;20454;-78
2024/02/04 09:53:02;;;;;;;0.10;0.10;;;11.70;79.80;;;;;;6157678;23;20075;-78
2024/02/04 09:55:31;;;;;;;0.13;0.13;;;11.70;79.30;;;;;;6156371;23;20092;-78
2024/02/04 09:57:56;;;;;;;0.10;0.10;;;11.80;79.10;;;;;;6156223;23;20013;-78
2024/02/04 10:00:23;;;;;;;0.10;0.10;;;11.80;78.90;;;;;;6155740;23;20020;-78
2024/02/04 10:02:49;;;;;;;0.10;0.10;;;11.80;78.80;;;;;;6158188;23;20006;-78
2024/02/04 10:05:15;;;;;;;0.10;0.10;;;11.80;78.60;;;;;;6158595;23;20419;-78
2024/02/04 10:07:41;;;;;;;0.10;0.10;;;11.80;79.00;;;;;;6154128;23;20435;-78
2024/02/04 10:10:08;;;;;;;0.10;0.10;;;11.80;78.60;;;;;;6157201;23;20009;-81
2024/02/04 10:12:35;;;;;;;0.17;0.17;;;11.80;78.50;;;;;;6159320;23;20006;-78
2024/02/04 10:15:02;;;;;;;0.10;0.10;;;11.80;78.20;;;;;;6157538;23;20006;-78
2024/02/04 10:17:27;;;;;;;0.10;0.10;;;11.80;78.30;;;;;;6157678;23;20005;-81
2024/02/04 10:19:53;;;;;;;0.10;0.10;;;11.80;78.20;;;;;;6158984;23;20346;-78
2024/02/04 10:22:19;;;;;;;0.10;0.10;;;11.90;78.00;;;;;;6156804;23;20100;-77
2024/02/04 10:24:46;;;;;;;0.10;0.10;;;12.00;78.00;;;;;;6153873;23;20006;-79
2024/02/04 10:27:12;;;;;;;0.10;0.10;;;12.00;78.00;;;;;;6152568;23;20007;-77
2024/02/04 10:29:38;;;;;;;0.10;0.10;;;12.10;77.50;;;;;;6158471;23;20029;-76
2024/02/04 10:32:04;;;;;;;0.10;0.10;;;12.10;77.20;;;;;;6150616;23;20446;-78
2024/02/04 10:34:30;;;;;;;0.10;0.10;;;12.10;77.20;;;;;;6175780;23;20021;-84
2024/02/04 10:36:58;;;;;;;0.10;0.10;;;12.20;76.90;;;;;;6152312;23;20013;-79
2024/02/04 10:39:24;;;;;;;0.10;0.10;;;12.20;77.00;;;;;;6154012;23;20031;-78
2024/02/04 10:41:52;;;;;;;0.10;0.10;;;12.20;76.70;;;;;;6156443;23;20045;-79
2024/02/04 10:44:20;;;;;;;0.10;0.10;;;12.20;76.50;;;;;;6154164;23;20540;-79
2024/02/04 10:46:50;;;;;;;0.10;0.10;;;12.20;76.50;;;;;;6153851;23;20009;-79
2024/02/04 10:49:17;;;;;;;0.10;0.10;;;12.20;76.90;;;;;;6158953;23;20016;-79
2024/02/04 10:51:45;;;;;;;0.20;0.20;;;12.20;76.80;;;;;;6154757;23;20087;-80
2024/02/04 10:54:15;;;;;;;0.10;0.10;;;12.20;76.70;;;;;;6152797;23;20020;-87
2024/02/04 10:56:46;;;;;;;0.10;0.10;;;12.30;76.80;;;;;;6152940;23;20084;-80
2024/02/04 10:59:21;;;;;;;0.10;0.10;;;12.20;76.50;;;;;;6157110;23;20016;-77
2024/02/04 11:01:49;;;;;;;0.10;0.10;;;12.20;76.30;;;;;;6153566;23;20002;-81
2024/02/04 11:04:17;;;;;;;0.10;0.10;;;12.20;76.70;;;;;;6153124;23;20014;-78
2024/02/04 11:06:44;;;;;;;0.10;0.10;;;12.20;76.30;;;;;;6181977;23;20137;-79
2024/02/04 11:09:11;;;;;;;0.10;0.10;;;12.20;76.50;;;;;;6153747;23;20029;-81
2024/02/04 11:11:39;;;;;;;0.10;0.10;;;12.20;76.50;;;;;;6179911;23;20001;-79
2024/02/04 11:14:09;;;;;;;0.10;0.10;;;12.30;76.60;;;;;;6153760;23;20009;-79
2024/02/04 11:16:44;;;;;;;0.10;0.10;;;12.30;76.20;;;;;;6151541;23;20036;-80
2024/02/04 11:19:48;;;;;;;0.10;0.10;;;12.30;76.30;;;;;;6151999;23;20019;-79
2024/02/04 11:22:14;;;;;;;;;;;12.30;76.00;;;;;;6152292;23;20410;-78
2024/02/04 11:24:58;;;;;;;0.20;0.20;;;12.40;75.90;;;;;;6155997;23;19943;-80
2024/02/04 11:27:26;;;;;;;0.10;0.10;;;12.40;75.70;;;;;;6158038;23;20002;-80
2024/02/04 11:29:52;;;;;;;0.10;0.10;;;12.40;75.80;;;;;;6153186;23;20338;-89
2024/02/04 11:32:17;;;;;;;0.10;0.10;;;12.40;75.60;;;;;;6151672;23;20017;-79
2024/02/04 11:34:45;;;;;;;0.20;0.20;;;12.50;75.50;;;;;;6157136;23;20033;-86
2024/02/04 11:37:19;;;;;;;0.10;0.10;;;12.50;75.60;;;;;;6158509;23;20005;-79
2024/02/04 11:40:04;;;;;;;0.10;0.10;;;12.50;75.60;;;;;;6155147;23;20010;-86
2024/02/04 11:42:33;;;;;;;0.10;0.10;;;12.50;75.50;;;;;;6158032;23;20040;-82
2024/02/04 11:45:13;;;;;;;0.10;0.10;;;12.40;75.60;;;;;;6157069;23;20449;-81
2024/02/04 11:47:39;;;;;;;0.10;0.10;;;12.30;75.80;;;;;;6156202;23;20100;-77
2024/02/04 11:50:05;;;;;;;0.10;0.10;;;12.30;75.60;;;;;;6158785;23;20072;-80
2024/02/04 11:52:31;;;;;;;0.10;0.10;;;12.30;75.90;;;;;;6158689;23;19998;-82
2024/02/04 11:54:57;;;;;;;0.10;0.10;;;12.50;75.90;;;;;;6160000;23;20031;-83
2024/02/04 11:57:23;;;;;;;0.10;0.10;;;12.50;75.40;;;;;;6157264;23;20014;-77
2024/02/04 11:59:50;;;;;;;0.15;0.15;;;12.70;75.10;;;;;;6161327;23;20061;-85
2024/02/04 12:02:17;;;;;;;0.10;0.10;;;12.60;75.20;;;;;;6162549;23;20015;-86
2024/02/04 12:04:47;;;;;;;0.10;0.10;;;12.60;74.70;;;;;;6156993;23;20005;-80
2024/02/04 12:07:17;;;;;;;0.10;0.10;;;12.60;74.90;;;;;;6159051;23;20056;-78
2024/02/04 12:09:42;;;;;;;0.10;0.10;;;12.70;74.90;;;;;;6156238;23;20002;-79
2024/02/04 12:12:08;;;;;;;0.10;0.10;;;12.60;74.90;;;;;;6158045;23;19993;-78
2024/02/04 12:14:35;;;;;;;0.10;0.10;;;12.70;74.80;;;;;;6159036;23;20013;-77
2024/02/04 12:17:11;;;;;;;0.10;0.10;;;12.60;74.30;;;;;;6155989;23;20006;-81
2024/02/04 12:19:39;;;;;;;0.10;0.10;;;12.60;73.90;;;;;;6158581;23;20012;-81
2024/02/04 12:22:09;;;;;;;0.10;0.10;;;12.70;74.10;;;;;;6158163;23;20007;-82
2024/02/04 12:24:38;;;;;;;0.10;0.10;;;12.70;73.90;;;;;;6158250;23;20445;-77
2024/02/04 12:27:05;;;;;;;0.10;0.10;;;12.50;73.80;;;;;;6158699;23;20033;-79
2024/02/04 12:29:32;;;;;;;0.10;0.10;;;12.70;73.80;;;;;;6158816;23;20006;-91
2024/02/04 12:32:01;;;;;;;0.10;0.10;;;12.70;73.80;;;;;;6158002;23;20064;-85
2024/02/04 12:34:27;;;;;;;0.10;0.10;;;12.70;74.20;;;;;;6131817;23;20338;-78
2024/02/04 12:36:59;;;;;;;0.10;0.10;;;12.80;73.80;;;;;;6128917;23;20084;-79
2024/02/04 12:39:24;;;;;;;0.10;0.10;;;12.80;74.10;;;;;;6131008;23;20009;-80
2024/02/04 12:41:53;;;;;;;0.10;0.10;;;12.90;73.70;;;;;;6131005;23;20093;-80
2024/02/04 12:44:19;;;;;;;0.10;0.10;;;12.80;73.30;;;;;;6123671;23;20602;-79
2024/02/04 12:46:45;;;;;;;0.10;0.10;;;12.90;73.50;;;;;;6130189;23;20005;-79
2024/02/04 12:49:21;;;;;;;0.10;0.10;;;12.80;73.10;;;;;;6156251;23;19998;-79
2024/02/04 12:51:47;;;;;;;0.10;0.10;;;12.80;73.10;;;;;;6130644;23;20001;-79
2024/02/04 12:54:13;;;;;;;0.10;0.10;;;12.80;73.30;;;;;;6130434;23;20593;-79
2024/02/04 12:56:49;;;;;;;0.10;0.10;;;12.90;73.50;;;;;;6130730;23;20036;-80
2024/02/04 12:59:31;;;;;;;0.10;0.10;;;12.90;72.90;;;;;;6131127;23;20017;-79
2024/02/04 13:02:02;;;;;;;0.10;0.10;;;12.90;73.20;;;;;;6156761;23;20453;-79
2024/02/04 13:04:34;;;;;;;0.10;0.10;;;13.00;73.10;;;;;;6131138;23;20028;-79
2024/02/04 13:06:59;;;;;;;0.20;0.20;;;12.90;73.10;;;;;;6157122;23;20005;-79
2024/02/04 13:09:25;;;;;;;0.10;0.10;;;12.90;73.10;;;;;;6156616;23;20006;-79
2024/02/04 13:11:51;;;;;;;0.10;0.10;;;12.90;73.00;;;;;;6129692;23;20100;-79
2024/02/04 13:14:17;;;;;;;0.10;0.10;;;13.00;73.20;;;;;;6129736;23;20405;-79
2024/02/04 13:16:43;;;;;;;0.10;0.10;;;13.00;72.70;;;;;;6130365;23;20017;-79
2024/02/04 13:19:08;;;;;;;0.10;0.10;;;13.00;72.50;;;;;;6156823;23;20013;-78
2024/02/04 13:21:34;;;;;;;0.10;0.10;;;13.00;72.80;;;;;;6156617;23;20319;-81
2024/02/04 13:24:00;;;;;;;0.10;0.10;;;13.00;73.10;;;;;;6157069;23;20005;-79
2024/02/04 13:26:25;;;;;;;0.10;0.10;;;13.00;73.00;;;;;;6131054;23;20009;-83
2024/02/04 13:28:51;;;;;;;0.10;0.10;;;13.00;72.70;;;;;;6157001;23;19998;-78
2024/02/04 13:31:17;;;;;;;0.10;0.10;;;12.90;73.00;;;;;;6157335;23;20021;-77
2024/02/04 13:33:42;;;;;;;0.15;0.15;;;12.90;73.20;;;;;;6132346;23;20013;-77
2024/02/04 13:36:08;;;;;;;0.10;0.10;;;12.90;73.00;;;;;;6129590;23;20013;-78
2024/02/04 13:38:35;;;;;;;0.10;0.10;;;13.00;73.20;;;;;;6157750;23;20006;-78
2024/02/04 13:41:01;;;;;;;0.10;0.10;;;12.90;72.80;;;;;;6156103;23;20005;-78
2024/02/04 13:43:27;;;;;;;0.10;0.10;;;12.90;72.90;;;;;;6129311;23;20097;-78
2024/02/04 13:45:53;;;;;;;0.10;0.10;;;13.00;73.10;;;;;;6131496;23;20017;-78
2024/02/04 13:48:20;;;;;;;0.10;0.10;;;13.00;73.00;;;;;;6159829;23;20070;-79
2024/02/04 13:50:46;;;;;;;0.10;0.10;;;13.00;73.00;;;;;;6133444;23;20017;-79
2024/02/04 13:53:11;;;;;;;0.15;0.13;;;13.00;72.90;;;;;;6158767;23;20002;-85
2024/02/04 13:55:37;;;;;;;0.10;0.10;;;13.00;73.20;;;;;;6143683;23;20037;-81
2024/02/04 13:58:03;;;;;;;0.20;0.20;;;13.00;73.20;;;;;;6146866;23;20005;-81
2024/02/04 14:00:29;;;;;;;0.17;0.17;;;13.00;73.20;;;;;;6157977;23;20007;-77
2024/02/04 14:02:55;;;;;;;0.10;0.10;;;13.00;72.80;;;;;;6131723;23;20504;-79
2024/02/04 14:05:20;;;;;;;0.10;0.10;;;13.00;73.10;;;;;;6155922;23;20001;-81
2024/02/04 14:07:46;;;;;;;0.10;0.10;;;13.00;73.30;;;;;;6156501;23;20009;-78
2024/02/04 14:10:14;;;;;;;0.10;0.10;;;13.00;73.40;;;;;;6158043;23;20020;-78
2024/02/04 14:12:41;;;;;;;0.10;0.10;;;13.00;73.20;;;;;;6129739;23;20012;-78
2024/02/04 14:15:07;;;;;;;0.10;0.10;;;13.00;73.20;;;;;;6131636;23;20016;-78
2024/02/04 14:17:33;;;;;;;0.10;0.10;;;12.90;73.10;;;;;;6157610;23;20001;-78
2024/02/04 14:19:58;;;;;;;0.10;0.10;;;12.90;73.30;;;;;;6152549;23;20056;-77
2024/02/04 14:22:24;;;;;;;0.10;0.10;;;12.80;73.80;;;;;;6127683;23;20013;-78
2024/02/04 14:24:50;;;;;;;0.10;0.10;;;12.80;73.70;;;;;;6131071;23;20599;-79
2024/02/04 14:27:16;;;;;;;0.10;0.10;;;12.80;73.80;;;;;;6151718;23;20433;-78
2024/02/04 14:29:44;;;;;;;0.10;0.10;;;12.80;74.00;;;;;;6155672;23;20008;-78
2024/02/04 14:32:10;;;;;;;0.10;0.10;;;12.90;74.10;;;;;;6158264;23;20446;-78
2024/02/04 14:34:36;;;;;;;0.20;0.20;;;12.80;73.70;;;;;;6156661;23;20034;-78
2024/02/04 14:37:01;;;;;;;0.10;0.10;;;12.80;73.80;;;;;;6154639;23;20002;-77
2024/02/04 14:39:27;;;;;;;0.10;0.10;;;12.80;73.80;;;;;;6128597;23;20005;-78
2024/02/04 14:41:53;;;;;;;0.10;0.10;;;12.80;73.80;;;;;;6153252;23;20005;-78
2024/02/04 14:44:20;;;;;;;0.10;0.10;;;12.80;73.80;;;;;;6157424;23;20080;-77
2024/02/04 14:46:48;;;;;;;0.17;0.17;;;12.70;74.10;;;;;;6157794;23;20438;-77
2024/02/04 14:49:13;;;;;;;0.10;0.10;;;12.70;74.10;;;;;;6132309;23;20016;-77
2024/02/04 14:51:39;;;;;;;0.10;0.10;;;12.80;74.20;;;;;;6158276;23;19997;-79
2024/02/04 14:54:05;;;;;;;0.10;0.10;;;12.80;73.90;;;;;;6131526;23;20056;-78
2024/02/04 14:56:30;;;;;;;0.10;0.10;;;12.80;74.00;;;;;;6131808;23;20097;-77
2024/02/04 14:58:56;;;;;;;0.10;0.10;;;12.70;73.60;;;;;;6157925;23;20010;-77
2024/02/04 15:01:22;;;;;;;0.10;0.10;;;12.70;73.70;;;;;;6156746;23;20081;-76
2024/02/04 15:03:47;;;;;;;0.10;0.10;;;12.60;73.80;;;;;;6132378;23;20013;-76
2024/02/04 15:06:13;;;;;;;0.10;0.10;;;12.60;73.90;;;;;;6131465;23;20006;-77
2024/02/04 15:08:39;;;;;;;0.10;0.10;;;12.60;74.30;;;;;;6130983;23;20343;-76
2024/02/04 15:11:04;;;;;;;0.10;0.10;;;12.60;73.90;;;;;;6132076;23;20008;-77
2024/02/04 15:13:30;;;;;;;0.10;0.10;;;12.60;74.00;;;;;;6131855;23;20449;-77
2024/02/04 15:15:56;;;;;;;0.10;0.10;;;12.60;74.10;;;;;;6152685;23;20068;-78
2024/02/04 15:18:22;;;;;;;0.10;0.10;;;12.60;74.20;;;;;;6157153;23;20059;-77
2024/02/04 15:20:48;;;;;;;0.10;0.10;;;12.60;74.30;;;;;;6131031;23;20017;-78
2024/02/04 15:23:13;;;;;;;0.20;0.20;;;12.60;73.90;;;;;;6131902;23;20009;-77
2024/02/04 15:25:39;;;;;;;0.10;0.10;;;12.60;74.20;;;;;;6158039;23;20057;-77
2024/02/04 15:28:06;;;;;;;0.10;0.10;;;12.60;74.20;;;;;;6158191;23;20005;-76
2024/02/04 15:30:33;;;;;;;0.10;0.10;;;12.60;74.10;;;;;;6158007;23;20041;-79
2024/02/04 15:32:59;;;;;;;0.10;0.10;;;12.60;74.00;;;;;;6157766;23;20483;-78
2024/02/04 15:35:25;;;;;;;0.15;0.15;;;12.50;74.40;;;;;;6157249;23;20076;-79
2024/02/04 15:37:51;;;;;;;0.20;0.20;;;12.50;73.90;;;;;;6156418;23;20009;-80
2024/02/04 15:40:18;;;;;;;0.17;0.17;;;12.50;74.10;;;;;;6157972;23;20001;-78
2024/02/04 15:42:44;;;;;;;0.10;0.10;;;12.50;74.10;;;;;;6156979;23;20068;-85
2024/02/04 15:45:10;;;;;;;0.10;0.10;;;12.40;74.30;;;;;;6164308;23;20073;-81
2024/02/04 15:47:44;;;;;;;0.10;0.10;;;12.40;74.30;;;;;;6131659;23;20010;-82
2024/02/04 15:50:10;;;;;;;0.10;0.10;;;12.40;74.40;;;;;;6132055;23;20088;-84
2024/02/04 15:52:36;;;;;;;0.10;0.10;;;12.40;74.40;;;;;;6157886;23;20056;-80
2024/02/04 15:55:04;;;;;;;0.10;0.10;;;12.30;74.00;;;;;;6131963;23;20009;-81
2024/02/04 15:57:34;;;;;;;0.10;0.10;;;12.40;74.10;;;;;;6132022;23;20014;-80
2024/02/04 16:00:11;;;;;;;0.10;0.10;;;12.30;74.40;;;;;;6158658;23;20005;-79
2024/02/04 16:02:38;;;;;;;0.10;0.10;;;12.30;74.40;;;;;;6132550;23;20010;-80
2024/02/04 16:05:04;;;;;;;0.10;0.10;;;12.30;74.40;;;;;;6158115;23;20012;-80
2024/02/04 16:07:31;;;;;;;0.10;0.10;;;12.30;74.70;;;;;;6145584;23;20001;-79
2024/02/04 16:09:57;;;;;;;0.10;0.10;;;12.30;74.70;;;;;;6158668;23;20008;-77
2024/02/04 16:12:23;;;;;;;0.10;0.10;;;12.30;74.60;;;;;;6149380;23;20040;-76
2024/02/04 16:14:50;;;;;;;0.10;0.10;;;12.30;74.70;;;;;;6155350;23;20005;-77
2024/02/04 16:17:18;;;;;;;0.10;0.10;;;12.30;74.80;;;;;;6156528;23;20068;-81
2024/02/04 16:19:48;;;;;;;0.10;0.10;;;12.20;74.80;;;;;;6156458;23;20029;-81
2024/02/04 16:22:15;;;;;;;0.10;0.10;;;12.20;74.80;;;;;;6123443;23;20701;-77
2024/02/04 16:24:45;;;;;;;0.05;0.05;;;12.20;74.90;;;;;;6123483;23;20072;-79
2024/02/04 16:27:11;;;;;;;0.10;0.10;;;12.20;74.80;;;;;;6123635;23;20066;-77
2024/02/04 16:29:37;;;;;;;0.10;0.10;;;12.20;75.00;;;;;;6127338;23;20635;-78
2024/02/04 16:32:03;;;;;;;0.10;0.10;;;12.10;75.00;;;;;;6152643;23;20772;-78
2024/02/04 16:34:33;;;;;;;0.10;0.10;;;12.10;75.10;;;;;;6151499;23;20714;-78
2024/02/04 16:36:59;;;;;;;0.20;0.10;;;12.00;75.00;;;;;;6129633;23;20088;-77
2024/02/04 16:39:25;;;;;;;0.10;0.10;;;12.10;75.00;;;;;;6155493;23;20037;-78
2024/02/04 16:41:50;;;;;;;0.10;0.10;;;12.00;75.00;;;;;;6156483;23;20012;-78
2024/02/04 16:44:16;;;;;;;0.10;0.10;;;12.10;75.10;;;;;;6153202;23;20052;-78
2024/02/04 16:46:42;;;;;;;0.10;0.10;;;12.20;75.10;;;;;;6152291;23;20001;-78
2024/02/04 16:49:11;;;;;;;0.10;0.10;;;12.10;75.00;;;;;;6146206;23;20069;-79
2024/02/04 16:51:40;;;;;;;0.10;0.10;;;12.00;74.90;;;;;;6157140;23;20004;-78
2024/02/04 16:54:06;;;;;;;0.10;0.10;;;12.00;75.20;;;;;;6154092;23;20005;-79
2024/02/04 16:56:32;;;;;;;0.10;0.10;;;12.00;75.30;;;;;;6128168;23;20009;-79
2024/02/04 16:59:05;;;;;;;0.10;0.10;;;12.00;75.30;;;;;;6156916;23;20012;-80
2024/02/04 17:01:31;;;;;;;0.10;0.10;;;12.00;75.30;;;;;;6156138;23;20014;-79
2024/02/04 17:03:58;;;;;;;0.10;0.10;;;12.10;75.10;;;;;;6130241;23;20113;-80
2024/02/04 17:06:24;;;;;;;0.10;0.10;;;12.10;75.30;;;;;;6156074;23;20006;-80
2024/02/04 17:08:50;;;;;;;0.10;0.10;;;12.00;75.30;;;;;;6160251;23;20008;-81
2024/02/04 17:11:17;;;;;;;0.10;0.10;;;12.00;75.30;;;;;;6160012;23;20462;-80
2024/02/04 17:13:43;;;;;;;0.10;0.10;;;12.00;75.40;;;;;;6160026;23;19998;-79
2024/02/04 17:16:16;;;;;;;0.10;0.10;;;12.00;75.60;;;;;;6161656;23;20001;-80
2024/02/04 17:18:52;;;;;;;0.13;0.13;;;12.00;75.70;;;;;;6160233;23;20028;-80
2024/02/04 17:21:27;;;;;;;0.13;0.10;;;12.00;75.90;;;;;;6159816;23;20029;-82
2024/02/04 17:24:00;;;;;;;0.10;0.10;;;11.90;75.50;;;;;;6131569;23;20095;-83
2024/02/04 17:26:28;;;;;;;0.10;0.10;;;11.90;75.60;;;;;;6160478;23;20013;-81
2024/02/04 17:28:54;;;;;;;0.10;0.10;;;11.90;75.80;;;;;;6160971;23;20033;-81
2024/02/04 17:31:20;;;;;;;0.10;0.10;;;11.90;75.90;;;;;;6160229;23;20603;-84
2024/02/04 17:33:47;;;;;;;0.10;0.10;;;11.90;75.80;;;;;;6161896;23;20048;-92
2024/02/04 17:36:13;;;;;;;0.10;0.10;;;11.90;75.70;;;;;;6135945;23;20005;-86
2024/02/04 17:38:39;;;;;;;0.10;0.10;;;11.90;75.90;;;;;;6134810;23;20060;-79
2024/02/04 17:41:07;;;;;;;0.10;0.10;;;11.90;75.90;;;;;;6134358;23;20089;-76
2024/02/04 17:43:34;;;;;;;0.10;0.10;;;11.80;75.60;;;;;;6126653;23;20002;-77
2024/02/04 17:45:59;;;;;;;0.10;0.10;;;11.80;75.90;;;;;;6159649;23;20025;-77
2024/02/04 17:48:25;;;;;;;0.10;0.10;;;11.80;76.10;;;;;;6160153;23;20350;-77
2024/02/04 17:50:51;;;;;;;0.00;0.00;;;11.80;76.20;;;;;;6160421;23;20002;-78
2024/02/04 17:53:16;;;;;;;0.10;0.10;;;11.80;76.10;;;;;;6133771;23;20033;-78
2024/02/04 17:55:42;;;;;;;0.10;0.10;;;11.80;76.20;;;;;;6159678;23;20077;-80
2024/02/04 17:58:08;;;;;;;0.10;0.10;;;11.80;76.30;;;;;;6159231;23;20005;-78
2024/02/04 18:00:34;;;;;;;0.10;0.10;;;11.80;76.10;;;;;;6133236;23;20446;-77
2024/02/04 18:03:00;;;;;;;0.10;0.10;;;11.80;75.90;;;;;;6159284;23;20513;-78
2024/02/04 18:05:25;;;;;;;0.13;0.13;;;11.80;75.90;;;;;;6158436;23;20013;-77
2024/02/04 18:07:52;;;;;;;0.10;0.10;;;11.80;75.90;;;;;;6159821;23;20005;-78
2024/02/04 18:10:18;;;;;;;0.10;0.10;;;11.80;76.20;;;;;;6134625;23;20386;-78
2024/02/04 18:12:44;;;;;;;0.10;0.10;;;11.80;76.50;;;;;;6158211;23;20075;-79
2024/02/04 18:15:11;;;;;;;0.10;0.10;;;11.80;76.30;;;;;;6151988;23;21005;-78
2024/02/04 18:17:37;;;;;;;0.10;0.10;;;11.80;76.40;;;;;;6161787;23;20136;-78